createdAt,value
2023-03-13T00:01:14.360Z,14.40
2023-03-13T00:03:42.195Z,13.55
2023-03-13T00:06:09.638Z,15.20
2023-03-13T00:08:36.993Z,15.57
2023-03-13T00:11:06.009Z,14.40
2023-03-13T00:13:33.358Z,16.27
2023-03-13T00:16:08.004Z,14.45
2023-03-13T00:18:35.698Z,13.07
2023-03-13T00:21:07.151Z,13.62
2023-03-13T00:23:35.780Z,14.57
2023-03-13T00:26:08.298Z,14.32
2023-03-13T00:28:36.290Z,16.83
2023-03-13T00:31:05.388Z,13.33
2023-03-13T00:33:34.041Z,13.98
2023-03-13T00:36:01.915Z,14.10
2023-03-13T00:38:29.881Z,14.57
2023-03-13T00:41:07.268Z,16.62
2023-03-13T00:43:35.044Z,13.25
2023-03-13T00:46:02.514Z,14.27
2023-03-13T00:48:30.226Z,13.05
2023-03-13T00:50:57.855Z,13.60
2023-03-13T00:53:25.185Z,14.98
2023-03-13T00:55:55.233Z,13.88
2023-03-13T00:58:23.145Z,13.73
2023-03-13T01:00:51.433Z,12.57
2023-03-13T01:03:19.072Z,13.10
2023-03-13T01:05:55.178Z,14.15
2023-03-13T01:08:22.859Z,13.57
2023-03-13T01:10:50.542Z,13.55
2023-03-13T01:13:17.975Z,13.32
2023-03-13T01:15:45.312Z,13.32
2023-03-13T01:18:15.412Z,14.48
2023-03-13T01:20:42.745Z,13.60
2023-03-13T01:23:10.082Z,13.00
2023-03-13T01:25:38.194Z,13.00
2023-03-13T01:28:05.638Z,12.88
2023-03-13T01:30:32.958Z,13.62
2023-03-13T01:33:00.606Z,13.88
2023-03-13T01:35:27.978Z,14.02
2023-03-13T01:37:55.326Z,13.40
2023-03-13T01:40:22.913Z,13.35
2023-03-13T01:42:54.561Z,13.85
2023-03-13T01:45:49.976Z,15.32
2023-03-13T01:50:45.521Z,12.82
2023-03-13T01:53:13.043Z,11.98
2023-03-13T01:55:40.715Z,13.25
2023-03-13T01:58:08.069Z,12.37
2023-03-13T02:00:35.791Z,12.45
2023-03-13T02:03:06.753Z,13.32
2023-03-13T02:05:34.314Z,12.10
2023-03-13T02:08:07.496Z,13.82
2023-03-13T02:10:39.846Z,14.73
2023-03-13T02:13:07.226Z,12.48
2023-03-13T02:15:34.829Z,13.68
2023-03-13T02:18:02.163Z,12.50
2023-03-13T02:20:29.760Z,12.88
2023-03-13T02:23:20.463Z,12.15
2023-03-13T02:25:54.132Z,12.07
2023-03-13T02:28:27.497Z,12.15
2023-03-13T02:30:55.940Z,11.85
2023-03-13T02:33:23.265Z,12.27
2023-03-13T02:35:50.666Z,12.05
2023-03-13T02:38:21.698Z,13.07
2023-03-13T02:40:49.185Z,12.57
2023-03-13T02:43:36.924Z,12.70
2023-03-13T02:46:13.093Z,12.40
2023-03-13T02:48:45.537Z,13.48
2023-03-13T02:51:20.031Z,13.15
2023-03-13T02:53:49.286Z,13.07
2023-03-13T02:56:17.622Z,14.15
2023-03-13T02:58:50.395Z,12.73
2023-03-13T03:01:18.790Z,14.15
2023-03-13T03:03:46.413Z,12.02
2023-03-13T03:06:13.782Z,12.37
2023-03-13T03:08:43.784Z,13.18
2023-03-13T03:11:11.508Z,11.68
2023-03-13T03:13:38.939Z,12.05
2023-03-13T03:16:15.221Z,12.82
2023-03-13T03:18:42.621Z,12.93
2023-03-13T03:21:10.317Z,12.60
2023-03-13T03:23:37.897Z,12.77
2023-03-13T03:26:05.841Z,15.10
2023-03-13T03:28:33.757Z,12.85
2023-03-13T03:31:08.305Z,14.35
2023-03-13T03:33:36.448Z,13.77
2023-03-13T03:36:09.178Z,13.65
2023-03-13T03:38:37.547Z,13.25
2023-03-13T03:41:04.985Z,13.62
2023-03-13T03:43:32.870Z,12.15
2023-03-13T03:46:01.218Z,11.68
2023-03-13T03:48:28.736Z,13.68
2023-03-13T03:50:56.116Z,13.00
2023-03-13T03:53:24.121Z,14.20
2023-03-13T03:55:51.579Z,13.02
2023-03-13T03:58:19.134Z,14.02
2023-03-13T04:00:50.549Z,11.65
2023-03-13T04:03:18.387Z,11.82
2023-03-13T04:05:46.405Z,12.25
2023-03-13T04:08:14.611Z,11.52
2023-03-13T04:10:42.486Z,12.10
2023-03-13T04:13:09.967Z,12.00
2023-03-13T04:15:39.088Z,11.73
2023-03-13T04:18:08.872Z,11.55
2023-03-13T04:20:36.444Z,12.95
2023-03-13T04:23:03.927Z,12.05
2023-03-13T04:25:31.771Z,11.80
2023-03-13T04:27:59.391Z,10.77
2023-03-13T04:30:27.072Z,12.68
2023-03-13T04:32:55.142Z,11.18
2023-03-13T04:35:22.743Z,9.77
2023-03-13T04:37:50.642Z,11.23
2023-03-13T04:40:18.519Z,11.30
2023-03-13T04:42:47.193Z,11.73
2023-03-13T04:45:14.779Z,10.82
2023-03-13T04:47:42.684Z,11.45
2023-03-13T04:50:10.898Z,12.32
2023-03-13T04:52:38.903Z,10.80
2023-03-13T04:55:06.772Z,12.88
2023-03-13T04:57:34.411Z,10.55
2023-03-13T05:00:01.991Z,12.57
2023-03-13T05:02:30.907Z,11.48
2023-03-13T05:04:58.498Z,15.90
2023-03-13T05:07:26.121Z,11.48
2023-03-13T05:09:53.917Z,12.68
2023-03-13T05:12:21.653Z,11.93
2023-03-13T05:14:50.389Z,12.70
2023-03-13T05:17:18.781Z,13.80
2023-03-13T05:19:46.562Z,12.15
2023-03-13T05:22:14.354Z,13.35
2023-03-13T05:24:44.630Z,11.70
2023-03-13T05:27:12.100Z,12.23
2023-03-13T05:29:39.855Z,12.65
2023-03-13T05:32:07.557Z,13.32
2023-03-13T05:34:36.172Z,12.88
2023-03-13T05:37:03.678Z,13.57
2023-03-13T05:39:31.628Z,13.50
2023-03-13T05:41:59.399Z,15.02
2023-03-13T05:44:27.115Z,13.70
2023-03-13T05:46:54.882Z,13.98
2023-03-13T05:49:23.627Z,15.20
2023-03-13T05:51:51.640Z,15.15
2023-03-13T05:54:19.769Z,13.10
2023-03-13T05:56:50.413Z,12.95
2023-03-13T05:59:20.827Z,17.02
2023-03-13T06:01:49.051Z,12.55
2023-03-13T06:04:17.145Z,12.10
2023-03-13T06:06:44.846Z,12.98
2023-03-13T06:09:12.388Z,15.82
2023-03-13T06:11:40.119Z,13.98
2023-03-13T06:14:07.587Z,13.25
2023-03-13T06:16:35.914Z,14.57
2023-03-13T06:19:05.446Z,12.37
2023-03-13T06:21:32.761Z,12.75
2023-03-13T06:24:00.084Z,11.60
2023-03-13T06:26:27.681Z,12.50
2023-03-13T06:28:55.049Z,12.75
2023-03-13T06:31:22.496Z,13.15
2023-03-13T06:33:53.722Z,14.27
2023-03-13T06:36:21.919Z,13.02
2023-03-13T06:38:49.539Z,13.43
2023-03-13T06:41:16.853Z,12.40
2023-03-13T06:43:44.231Z,13.23
2023-03-13T06:46:22.638Z,12.45
2023-03-13T06:48:50.429Z,12.27
2023-03-13T06:51:19.864Z,13.00
2023-03-13T06:53:48.114Z,13.45
2023-03-13T06:56:15.447Z,12.93
2023-03-13T06:58:43.044Z,12.55
2023-03-13T07:01:11.534Z,11.30
2023-03-13T07:03:39.082Z,12.30
2023-03-13T07:06:07.031Z,12.85
2023-03-13T07:08:34.639Z,12.93
2023-03-13T07:11:03.386Z,11.80
2023-03-13T07:13:31.085Z,13.52
2023-03-13T07:16:06.370Z,12.30
2023-03-13T07:18:34.254Z,11.63
2023-03-13T07:21:04.978Z,12.30
2023-03-13T07:23:32.981Z,12.18
2023-03-13T07:26:02.791Z,11.95
2023-03-13T07:28:31.123Z,13.43
2023-03-13T07:31:15.664Z,13.60
2023-03-13T07:33:43.536Z,12.68
2023-03-13T07:36:11.065Z,12.63
2023-03-13T07:38:38.477Z,12.10
2023-03-13T07:41:06.148Z,13.43
2023-03-13T07:43:33.671Z,12.55
2023-03-13T07:46:02.257Z,12.27
2023-03-13T07:48:37.504Z,12.10
2023-03-13T07:51:06.237Z,13.23
2023-03-13T07:53:34.105Z,13.65
2023-03-13T07:56:03.175Z,14.45
2023-03-13T07:58:32.493Z,12.32
2023-03-13T08:01:00.155Z,12.18
2023-03-13T08:03:28.642Z,11.65
2023-03-13T08:06:26.102Z,11.93
2023-03-13T08:08:56.293Z,11.68
2023-03-13T08:11:26.848Z,12.07
2023-03-13T08:13:54.558Z,11.73
2023-03-13T08:16:25.789Z,12.43
2023-03-13T08:18:54.428Z,12.05
2023-03-13T08:21:29.800Z,11.68
2023-03-13T08:23:59.182Z,11.43
2023-03-13T08:26:30.465Z,11.40
2023-03-13T08:29:02.575Z,10.90
2023-03-13T08:31:33.452Z,11.32
2023-03-13T08:34:00.794Z,12.30
2023-03-13T08:36:31.146Z,11.35
2023-03-13T08:39:00.146Z,11.77
2023-03-13T08:41:29.135Z,11.70
2023-03-13T08:44:02.835Z,12.48
2023-03-13T08:46:31.043Z,12.27
2023-03-13T08:48:58.590Z,12.23
2023-03-13T08:51:26.925Z,12.90
2023-03-13T08:53:56.040Z,11.60
2023-03-13T08:56:25.280Z,12.52
2023-03-13T08:58:59.976Z,12.88
2023-03-13T09:01:32.256Z,11.95
2023-03-13T09:04:03.564Z,11.73
2023-03-13T09:06:33.442Z,12.07
2023-03-13T09:09:00.907Z,13.60
2023-03-13T09:11:28.281Z,13.30
2023-03-13T09:13:56.215Z,11.35
2023-03-13T09:16:24.087Z,12.15
2023-03-13T09:18:51.785Z,11.82
2023-03-13T09:21:21.319Z,12.10
2023-03-13T09:23:48.846Z,12.60
2023-03-13T09:26:16.638Z,12.60
2023-03-13T09:28:44.300Z,12.93
2023-03-13T09:31:16.489Z,13.43
2023-03-13T09:33:44.523Z,12.15
2023-03-13T09:36:12.089Z,12.27
2023-03-13T09:38:39.724Z,13.13
2023-03-13T09:41:27.930Z,12.73
2023-03-13T09:44:08.351Z,12.48
2023-03-13T09:46:54.270Z,12.93
2023-03-13T09:49:54.421Z,11.50
2023-03-13T09:52:41.052Z,11.68
2023-03-13T09:57:56.406Z,11.25
2023-03-13T10:00:38.670Z,11.85
2023-03-13T10:03:15.119Z,11.45
2023-03-13T10:05:53.382Z,11.02
2023-03-13T10:08:30.231Z,12.25
2023-03-13T10:11:04.644Z,11.93
2023-03-13T10:13:37.749Z,12.13
2023-03-13T10:16:09.652Z,11.82
2023-03-13T10:18:37.433Z,11.38
2023-03-13T10:21:26.296Z,12.32
2023-03-13T10:24:24.847Z,11.95
2023-03-13T10:26:52.308Z,12.95
2023-03-13T10:29:24.544Z,11.90
2023-03-13T10:32:02.428Z,12.32
2023-03-13T10:34:51.485Z,11.48
2023-03-13T10:37:29.728Z,13.93
2023-03-13T10:40:15.158Z,12.70
2023-03-13T10:42:45.766Z,12.30
2023-03-13T10:45:17.886Z,12.48
2023-03-13T10:47:45.261Z,12.82
2023-03-13T10:50:20.942Z,11.43
2023-03-13T10:52:48.712Z,12.13
2023-03-13T10:55:21.191Z,11.60
2023-03-13T10:58:04.627Z,11.48
2023-03-13T11:00:39.209Z,12.98
2023-03-13T11:03:22.031Z,11.40
2023-03-13T11:05:57.727Z,11.52
2023-03-13T11:08:26.557Z,12.43
2023-03-13T11:11:05.294Z,14.65
2023-03-13T11:13:40.958Z,12.75
2023-03-13T11:16:28.279Z,11.98
2023-03-13T11:19:18.742Z,12.43
2023-03-13T11:22:06.152Z,12.23
2023-03-13T11:25:03.565Z,12.93
2023-03-13T11:27:49.287Z,12.45
2023-03-13T11:30:47.508Z,11.52
2023-03-13T11:33:30.149Z,11.68
2023-03-13T11:36:27.587Z,12.37
2023-03-13T11:39:21.958Z,12.70
2023-03-13T11:42:24.382Z,12.37
2023-03-13T11:44:54.772Z,13.02
2023-03-13T11:47:37.080Z,12.15
2023-03-13T11:50:16.835Z,15.20
2023-03-13T11:53:08.809Z,13.02
2023-03-13T11:55:42.721Z,11.95
2023-03-13T11:58:47.862Z,12.73
2023-03-13T12:01:19.732Z,12.30
2023-03-13T12:04:13.172Z,12.93
2023-03-13T12:07:05.475Z,13.32
2023-03-13T12:09:56.171Z,12.90
2023-03-13T12:12:35.348Z,15.00
2023-03-13T12:15:18.894Z,12.52
2023-03-13T12:17:50.989Z,12.55
2023-03-13T12:20:18.516Z,13.18
2023-03-13T12:22:51.825Z,12.05
2023-03-13T12:25:25.640Z,13.52
2023-03-13T12:27:54.579Z,12.43
2023-03-13T12:30:38.601Z,12.02
2023-03-13T12:33:17.641Z,11.65
2023-03-13T12:35:47.381Z,11.27
2023-03-13T12:38:23.094Z,11.65
2023-03-13T12:41:21.791Z,12.10
2023-03-13T12:44:04.220Z,11.63
2023-03-13T12:46:38.846Z,11.25
2023-03-13T12:49:24.696Z,11.57
2023-03-13T12:52:00.387Z,13.95
2023-03-13T12:54:49.486Z,12.05
2023-03-13T12:57:59.436Z,11.73
2023-03-13T13:00:29.921Z,11.63
2023-03-13T13:03:16.576Z,12.02
2023-03-13T13:08:38.514Z,12.00
2023-03-13T13:13:52.192Z,12.40
2023-03-13T13:16:20.598Z,14.32
2023-03-13T13:18:47.993Z,12.32
2023-03-13T13:21:15.610Z,11.80
2023-03-13T13:23:47.097Z,11.12
2023-03-13T13:26:26.788Z,10.13
2023-03-13T13:28:54.762Z,10.52
2023-03-13T13:31:43.860Z,11.25
2023-03-13T13:34:52.568Z,11.48
2023-03-13T13:37:22.806Z,10.27
2023-03-13T13:39:54.009Z,10.63
2023-03-13T13:42:33.262Z,10.88
2023-03-13T13:45:16.156Z,15.20
2023-03-13T13:47:47.979Z,11.52
2023-03-13T13:50:23.012Z,10.88
2023-03-13T13:52:50.437Z,12.13
2023-03-13T13:55:26.737Z,10.90
2023-03-13T13:58:12.306Z,10.57
2023-03-13T14:00:47.017Z,11.07
2023-03-13T14:03:20.469Z,10.60
2023-03-13T14:05:49.167Z,11.55
2023-03-13T14:08:39.232Z,11.27
2023-03-13T14:11:25.434Z,10.20
2023-03-13T14:14:29.076Z,10.60
2023-03-13T14:16:59.333Z,11.25
2023-03-13T14:19:40.325Z,11.18
2023-03-13T14:22:09.094Z,9.82
2023-03-13T14:24:36.713Z,13.35
2023-03-13T14:27:22.310Z,12.27
2023-03-13T14:30:06.774Z,10.63
2023-03-13T14:32:34.186Z,12.37
2023-03-13T14:35:02.366Z,10.45
2023-03-13T14:37:43.145Z,11.10
2023-03-13T14:40:29.989Z,10.77
2023-03-13T14:42:59.127Z,10.90
2023-03-13T14:45:34.362Z,11.40
2023-03-13T14:48:12.413Z,12.75
2023-03-13T14:50:40.051Z,11.88
2023-03-13T14:53:22.585Z,10.75
2023-03-13T14:56:30.201Z,10.68
2023-03-13T14:59:07.080Z,9.05
2023-03-13T15:01:35.076Z,9.73
2023-03-13T15:04:02.482Z,9.48
2023-03-13T15:06:29.830Z,9.55
2023-03-13T15:09:16.472Z,11.12
2023-03-13T15:11:56.236Z,8.77
2023-03-13T15:14:39.783Z,9.52
2023-03-13T15:17:20.384Z,9.02
2023-03-13T15:19:49.258Z,9.55
2023-03-13T15:22:16.748Z,9.45
2023-03-13T15:24:56.107Z,8.90
2023-03-13T15:27:31.821Z,10.57
2023-03-13T15:29:59.154Z,9.07
2023-03-13T15:32:28.264Z,8.98
2023-03-13T15:35:01.680Z,9.60
2023-03-13T15:37:29.752Z,9.75
2023-03-13T15:39:57.378Z,9.73
2023-03-13T15:42:24.921Z,9.65
2023-03-13T15:44:52.274Z,9.00
2023-03-13T15:47:21.289Z,9.98
2023-03-13T15:49:48.698Z,9.30
2023-03-13T15:52:19.418Z,9.77
2023-03-13T15:54:46.996Z,10.07
2023-03-13T15:57:24.294Z,10.40
2023-03-13T15:59:52.521Z,9.95
2023-03-13T16:02:21.504Z,10.38
2023-03-13T16:04:49.212Z,11.48
2023-03-13T16:07:18.546Z,12.73
2023-03-13T16:09:46.027Z,9.18
2023-03-13T16:12:13.688Z,11.20
2023-03-13T16:14:41.044Z,9.63
2023-03-13T16:17:16.309Z,9.27
2023-03-13T16:19:44.345Z,11.30
2023-03-13T16:22:11.805Z,9.85
2023-03-13T16:24:39.471Z,9.00
2023-03-13T16:27:16.821Z,9.02
2023-03-13T16:29:44.897Z,9.20
2023-03-13T16:32:16.151Z,9.45
2023-03-13T16:34:43.550Z,10.40
2023-03-13T16:37:17.809Z,11.23
2023-03-13T16:39:45.512Z,12.48
2023-03-13T16:42:12.909Z,11.15
2023-03-13T16:44:40.361Z,10.65
2023-03-13T16:47:35.899Z,10.23
2023-03-13T16:50:20.883Z,12.85
2023-03-13T16:52:48.569Z,11.93
2023-03-13T16:55:16.391Z,12.50
2023-03-13T16:57:43.821Z,13.15
2023-03-13T17:00:18.999Z,12.98
2023-03-13T17:02:46.436Z,10.85
2023-03-13T17:05:15.954Z,9.88
2023-03-13T17:07:47.238Z,11.70
2023-03-13T17:10:28.602Z,9.90
2023-03-13T17:12:55.949Z,9.45
2023-03-13T17:15:24.041Z,15.80
2023-03-13T17:17:51.955Z,10.45
2023-03-13T17:20:27.468Z,10.32
2023-03-13T17:22:56.473Z,10.77
2023-03-13T17:25:24.270Z,9.60
2023-03-13T17:27:51.683Z,9.52
2023-03-13T17:30:25.386Z,9.48
2023-03-13T17:32:52.771Z,11.70
2023-03-13T17:35:20.648Z,9.30
2023-03-13T17:37:48.236Z,9.77
2023-03-13T17:40:26.812Z,10.65
2023-03-13T17:42:56.251Z,8.40
2023-03-13T17:45:23.909Z,8.95
2023-03-13T17:47:51.277Z,8.65
2023-03-13T17:50:27.175Z,8.30
2023-03-13T17:52:54.894Z,8.95
2023-03-13T17:55:22.512Z,9.50
2023-03-13T17:57:49.900Z,10.32
2023-03-13T18:00:20.443Z,10.70
2023-03-13T18:02:48.078Z,9.98
2023-03-13T18:05:15.619Z,9.05
2023-03-13T18:07:44.312Z,10.55
2023-03-13T18:10:20.189Z,18.65
2023-03-13T18:12:48.008Z,13.10
2023-03-13T18:15:15.676Z,10.75
2023-03-13T18:17:43.045Z,10.43
2023-03-13T18:20:18.929Z,13.27
2023-03-13T18:22:46.950Z,9.55
2023-03-13T18:25:14.490Z,10.20
2023-03-13T18:27:41.844Z,11.75
2023-03-13T18:30:16.623Z,10.18
2023-03-13T18:32:43.997Z,10.98
2023-03-13T18:35:13.557Z,9.68
2023-03-13T18:37:42.418Z,10.00
2023-03-13T18:40:26.539Z,11.70
2023-03-13T18:42:54.172Z,10.60
2023-03-13T18:45:23.373Z,12.20
2023-03-13T18:47:50.742Z,9.75
2023-03-13T18:50:26.800Z,11.77
2023-03-13T18:52:55.477Z,11.68
2023-03-13T18:55:24.155Z,10.13
2023-03-13T18:57:51.615Z,10.52
2023-03-13T19:00:20.116Z,10.32
2023-03-13T19:02:47.748Z,10.40
2023-03-13T19:05:15.445Z,12.18
2023-03-13T19:07:42.772Z,11.95
2023-03-13T19:10:24.410Z,11.35
2023-03-13T19:12:52.063Z,15.98
2023-03-13T19:15:19.715Z,11.05
2023-03-13T19:17:47.141Z,11.98
2023-03-13T19:20:16.668Z,11.70
2023-03-13T19:22:44.426Z,12.93
2023-03-13T19:25:11.921Z,19.55
2023-03-13T19:27:42.439Z,11.93
2023-03-13T19:30:17.250Z,12.52
2023-03-13T19:32:44.774Z,11.85
2023-03-13T19:35:12.884Z,11.88
2023-03-13T19:37:40.435Z,14.98
2023-03-13T19:40:20.633Z,12.37
2023-03-13T19:42:48.246Z,12.45
2023-03-13T19:45:17.717Z,12.20
2023-03-13T19:47:45.128Z,13.95
2023-03-13T19:50:20.351Z,12.88
2023-03-13T19:52:47.792Z,20.48
2023-03-13T19:55:15.435Z,13.98
2023-03-13T19:57:42.844Z,13.27
2023-03-13T20:00:18.699Z,14.57
2023-03-13T20:02:45.963Z,17.70
2023-03-13T20:05:13.673Z,14.93
2023-03-13T20:07:41.023Z,13.25
2023-03-13T20:10:08.592Z,15.13
2023-03-13T20:12:36.248Z,13.05
2023-03-13T20:15:03.980Z,13.65
2023-03-13T20:17:31.318Z,13.62
2023-03-13T20:19:58.932Z,15.38
2023-03-13T20:22:26.381Z,13.02
2023-03-13T20:24:55.879Z,13.18
2023-03-13T20:27:23.602Z,12.23
2023-03-13T20:29:51.016Z,13.35
2023-03-13T20:32:18.460Z,13.75
2023-03-13T20:34:46.108Z,15.13
2023-03-13T20:37:13.446Z,15.73
2023-03-13T20:39:41.849Z,12.00
2023-03-13T20:42:09.598Z,12.20
2023-03-13T20:44:36.912Z,13.50
2023-03-13T20:47:04.249Z,11.75
2023-03-13T20:49:31.854Z,13.23
2023-03-13T20:51:59.227Z,12.98
2023-03-13T20:54:26.552Z,12.70
2023-03-13T20:56:54.940Z,12.95
2023-03-13T20:59:22.264Z,13.90
2023-03-13T21:01:49.667Z,14.30
2023-03-13T21:04:17.354Z,12.98
2023-03-13T21:06:44.727Z,15.77
2023-03-13T21:09:13.461Z,15.90
2023-03-13T21:11:41.068Z,16.25
2023-03-13T21:14:08.402Z,13.40
2023-03-13T21:16:35.812Z,15.55
2023-03-13T21:19:03.456Z,15.60
2023-03-13T21:21:30.817Z,14.02
2023-03-13T21:23:58.189Z,15.77
2023-03-13T21:26:25.813Z,16.92
2023-03-13T21:28:53.233Z,15.05
2023-03-13T21:31:20.615Z,16.92
2023-03-13T21:33:48.287Z,14.87
2023-03-13T21:36:17.189Z,16.37
2023-03-13T21:38:44.708Z,14.10
2023-03-13T21:41:13.806Z,14.38
2023-03-13T21:43:41.709Z,15.23
2023-03-13T21:46:10.131Z,16.83
2023-03-13T21:48:39.045Z,13.88
2023-03-13T21:51:06.774Z,15.60
2023-03-13T21:53:34.604Z,15.32
2023-03-13T21:56:02.294Z,16.83
2023-03-13T21:58:29.667Z,15.30
2023-03-13T22:00:57.139Z,15.25
2023-03-13T22:03:26.486Z,15.85
2023-03-13T22:05:53.919Z,14.85
2023-03-13T22:08:21.269Z,15.30
2023-03-13T22:10:49.661Z,14.35
2023-03-13T22:13:17.054Z,15.07
2023-03-13T22:15:46.370Z,15.55
2023-03-13T22:18:14.572Z,15.35
2023-03-13T22:20:42.649Z,15.65
2023-03-13T22:23:10.962Z,16.70
2023-03-13T22:25:40.351Z,13.75
2023-03-13T22:28:08.026Z,15.13
2023-03-13T22:30:35.561Z,14.98
2023-03-13T22:33:06.701Z,17.00
2023-03-13T22:35:34.856Z,15.73
2023-03-13T22:38:02.727Z,17.40
2023-03-13T22:40:30.079Z,16.02
2023-03-13T22:42:57.436Z,15.32
2023-03-13T22:45:25.045Z,18.83
2023-03-13T22:47:52.377Z,15.82
2023-03-13T22:50:20.953Z,14.80
2023-03-13T22:52:48.608Z,17.55
2023-03-13T22:55:15.996Z,16.08
2023-03-13T22:57:43.381Z,15.85
2023-03-13T23:00:11.629Z,21.23
2023-03-13T23:02:38.948Z,14.90
2023-03-13T23:05:06.438Z,15.43
2023-03-13T23:07:35.794Z,16.80
2023-03-13T23:10:03.205Z,15.82
2023-03-13T23:12:30.887Z,15.88
2023-03-13T23:15:02.102Z,15.20
2023-03-13T23:17:30.584Z,15.23
2023-03-13T23:19:58.048Z,14.73
2023-03-13T23:22:29.090Z,16.55
2023-03-13T23:24:56.442Z,15.68
2023-03-13T23:27:23.879Z,14.95
2023-03-13T23:29:51.987Z,16.00
2023-03-13T23:32:19.423Z,15.63
2023-03-13T23:34:46.822Z,17.33
2023-03-13T23:37:14.438Z,15.90
2023-03-13T23:39:41.849Z,16.77
2023-03-13T23:42:09.170Z,15.98
2023-03-13T23:44:36.863Z,17.17
2023-03-13T23:47:04.236Z,19.95
2023-03-13T23:49:32.073Z,18.00
2023-03-13T23:51:59.703Z,16.85
2023-03-13T23:54:27.168Z,16.00
2023-03-13T23:56:54.519Z,19.48
2023-03-13T23:59:22.173Z,15.90
